createdAt,value
2018-01-12T00:00:24.022Z,123.93
2018-01-12T00:02:52.319Z,108.53
2018-01-12T00:05:20.982Z,121.70
2018-01-12T00:07:49.383Z,107.47
2018-01-12T00:10:20.363Z,108.60
2018-01-12T00:12:49.302Z,109.57
2018-01-12T00:15:18.178Z,120.40
2018-01-12T00:17:47.634Z,129.47
2018-01-12T00:20:17.361Z,121.13
2018-01-12T00:22:46.667Z,128.00
2018-01-12T00:25:16.336Z,142.37
2018-01-12T00:27:45.204Z,132.83
2018-01-12T00:30:13.718Z,129.17
2018-01-12T00:32:42.710Z,133.27
2018-01-12T00:35:11.076Z,132.57
2018-01-12T00:37:39.372Z,133.13
2018-01-12T00:40:07.702Z,150.37
2018-01-12T00:42:36.076Z,139.50
2018-01-12T00:45:04.455Z,159.93
2018-01-12T00:47:32.915Z,158.10
2018-01-12T00:50:01.203Z,167.60
2018-01-12T00:52:29.717Z,162.87
2018-01-12T00:55:04.016Z,150.37
2018-01-12T00:57:34.663Z,150.43
2018-01-12T01:00:03.210Z,142.00
2018-01-12T01:02:34.462Z,165.10
2018-01-12T01:05:03.415Z,161.13
2018-01-12T01:07:31.972Z,148.60
2018-01-12T01:10:01.230Z,166.33
2018-01-12T01:12:29.582Z,148.97
2018-01-12T01:14:57.886Z,142.03
2018-01-12T01:17:26.763Z,161.20
2018-01-12T01:19:55.240Z,157.70
2018-01-12T01:22:24.043Z,147.03
2018-01-12T01:31:39.821Z,153.40
2018-01-12T01:34:08.122Z,157.67
2018-01-12T01:36:36.447Z,157.27
2018-01-12T01:39:05.421Z,141.60
2018-01-12T01:41:33.782Z,136.47
2018-01-12T01:44:02.128Z,133.77
2018-01-12T01:46:30.479Z,135.57
2018-01-12T01:48:58.760Z,138.37
2018-01-12T01:51:27.147Z,154.33
2018-01-12T01:53:55.571Z,149.90
2018-01-12T01:56:24.041Z,146.20
2018-01-12T01:58:52.427Z,141.60
2018-01-12T02:01:20.939Z,149.43
2018-01-12T02:03:49.392Z,136.30
2018-01-12T02:06:17.736Z,141.80
2018-01-12T02:08:46.020Z,144.90
2018-01-12T02:11:14.329Z,172.80
2018-01-12T02:13:42.726Z,170.73
2018-01-12T02:16:11.067Z,157.93
2018-01-12T02:18:39.365Z,147.07
2018-01-12T02:21:07.678Z,145.30
2018-01-12T02:23:36.018Z,146.93
2018-01-12T02:26:04.355Z,125.33
2018-01-12T02:28:32.679Z,146.67
2018-01-12T02:31:01.032Z,147.27
2018-01-12T02:33:29.547Z,146.73
2018-01-12T02:35:57.862Z,146.90
2018-01-12T02:38:26.172Z,170.13
2018-01-12T02:40:54.604Z,154.30
2018-01-12T02:43:23.083Z,139.20
2018-01-12T02:45:51.692Z,152.27
2018-01-12T02:48:21.324Z,153.57
2018-01-12T02:50:49.644Z,143.23
2018-01-12T02:53:17.943Z,152.33
2018-01-12T02:55:46.350Z,141.27
2018-01-12T02:58:14.686Z,136.60
2018-01-12T03:00:43.195Z,138.03
2018-01-12T03:03:11.518Z,144.90
2018-01-12T03:05:39.818Z,149.23
2018-01-12T03:08:08.256Z,141.00
2018-01-12T03:10:36.657Z,154.03
2018-01-12T03:13:05.012Z,145.53
2018-01-12T03:15:33.338Z,174.40
2018-01-12T03:18:01.635Z,163.13
2018-01-12T03:20:30.080Z,149.83
2018-01-12T03:22:58.530Z,166.17
2018-01-12T03:25:27.148Z,152.23
2018-01-12T03:27:55.434Z,177.87
2018-01-12T03:30:23.807Z,159.63
2018-01-12T03:32:52.116Z,147.27
2018-01-12T03:35:20.478Z,147.97
2018-01-12T03:37:48.800Z,137.27
2018-01-12T03:40:17.102Z,143.00
2018-01-12T03:42:45.457Z,142.50
2018-01-12T03:45:13.791Z,134.73
2018-01-12T03:47:42.099Z,150.70
2018-01-12T03:50:10.443Z,142.97
2018-01-12T03:52:38.736Z,146.73
2018-01-12T03:55:07.171Z,157.80
2018-01-12T03:57:35.618Z,155.87
2018-01-12T04:00:03.925Z,144.03
2018-01-12T04:02:32.269Z,152.50
2018-01-12T04:05:00.650Z,150.57
2018-01-12T04:07:29.015Z,153.30
2018-01-12T04:09:57.315Z,149.87
2018-01-12T04:12:25.640Z,153.40
2018-01-12T04:14:53.936Z,159.70
2018-01-12T04:17:22.270Z,153.50
2018-01-12T04:19:50.541Z,167.53
2018-01-12T04:22:18.871Z,168.50
2018-01-12T04:24:47.129Z,159.60
2018-01-12T04:27:15.484Z,163.00
2018-01-12T04:29:43.789Z,150.20
2018-01-12T04:32:12.142Z,154.97
2018-01-12T04:34:40.412Z,147.63
2018-01-12T04:37:08.747Z,160.10
2018-01-12T04:39:37.103Z,149.80
2018-01-12T04:42:05.470Z,174.77
2018-01-12T04:44:33.770Z,166.17
2018-01-12T04:47:02.115Z,176.47
2018-01-12T04:49:30.401Z,171.70
2018-01-12T04:51:58.788Z,191.80
2018-01-12T04:54:27.111Z,179.60
2018-01-12T04:56:56.423Z,194.83
2018-01-12T04:59:24.736Z,186.50
2018-01-12T05:04:48.890Z,181.10
2018-01-12T05:07:17.515Z,165.97
2018-01-12T05:09:46.127Z,177.97
2018-01-12T05:12:14.707Z,181.33
2018-01-12T05:14:43.233Z,169.23
2018-01-12T05:17:11.980Z,172.50
2018-01-12T05:19:40.632Z,178.93
2018-01-12T05:22:09.344Z,190.60
2018-01-12T05:24:37.860Z,199.47
2018-01-12T05:27:07.528Z,197.47
2018-01-12T05:29:36.342Z,189.53
2018-01-12T05:32:04.876Z,206.50
2018-01-12T05:34:33.376Z,177.27
2018-01-12T05:37:02.145Z,196.20
2018-01-12T05:39:30.649Z,180.17
2018-01-12T05:41:59.414Z,180.97
2018-01-12T05:44:27.948Z,183.73
2018-01-12T05:46:56.465Z,181.13
2018-01-12T05:49:24.950Z,179.33
2018-01-12T05:51:53.774Z,220.77
2018-01-12T05:54:22.325Z,182.70
2018-01-12T05:56:51.137Z,190.47
2018-01-12T05:59:19.661Z,175.03
2018-01-12T06:01:59.499Z,157.03
2018-01-12T06:06:41.330Z,183.47
2018-01-12T06:09:10.218Z,165.63
2018-01-12T06:11:38.925Z,173.73
2018-01-12T06:14:07.460Z,172.17
2018-01-12T06:16:35.997Z,157.93
2018-01-12T06:19:04.628Z,142.20
2018-01-12T06:21:33.288Z,152.60
2018-01-12T06:24:01.843Z,148.53
2018-01-12T06:26:30.357Z,153.47
2018-01-12T06:28:58.923Z,154.07
2018-01-12T06:31:27.565Z,165.57
2018-01-12T06:33:56.087Z,159.93
2018-01-12T06:36:24.757Z,155.90
2018-01-12T06:38:53.843Z,157.13
2018-01-12T06:41:22.514Z,142.33
2018-01-12T06:43:52.619Z,141.47
2018-01-12T06:46:21.210Z,126.83
2018-01-12T06:48:49.835Z,119.27
2018-01-12T06:51:18.547Z,124.17
2018-01-12T06:53:47.345Z,119.00
2018-01-12T06:56:16.138Z,107.37
2018-01-12T06:58:44.788Z,103.73
2018-01-12T07:01:13.309Z,100.83
2018-01-12T07:03:41.908Z,100.47
2018-01-12T07:06:11.397Z,104.70
2018-01-12T07:08:39.984Z,103.67
2018-01-12T07:11:08.816Z,121.93
2018-01-12T07:13:37.685Z,129.83
2018-01-12T07:16:06.269Z,118.17
2018-01-12T07:18:34.870Z,120.73
2018-01-12T07:21:14.768Z,125.27
2018-01-12T07:23:45.509Z,104.83
2018-01-12T07:26:14.053Z,101.73
2018-01-12T07:28:42.608Z,105.60
2018-01-12T07:31:11.153Z,101.40
2018-01-12T07:33:39.659Z,99.77
2018-01-12T07:36:08.209Z,89.43
2018-01-12T07:38:36.924Z,94.17
2018-01-12T07:41:05.491Z,98.97
2018-01-12T07:43:33.997Z,84.43
2018-01-12T07:46:04.343Z,94.73
2018-01-12T07:48:32.883Z,92.83
2018-01-12T07:51:01.589Z,82.13
2018-01-12T07:53:30.495Z,83.80
2018-01-12T07:55:59.193Z,82.20
2018-01-12T07:58:27.841Z,71.70
2018-01-12T08:01:00.851Z,73.83
2018-01-12T08:03:29.508Z,71.03
2018-01-12T08:05:58.039Z,73.70
2018-01-12T08:08:26.688Z,67.93
2018-01-12T08:10:55.443Z,70.07
2018-01-12T08:13:23.983Z,71.37
2018-01-12T08:15:52.545Z,67.17
2018-01-12T08:18:21.059Z,67.73
2018-01-12T08:20:49.950Z,68.33
2018-01-12T08:23:21.718Z,66.50
2018-01-12T08:25:50.712Z,66.73
2018-01-12T08:28:19.542Z,63.10
2018-01-12T08:30:48.367Z,60.27
2018-01-12T08:33:16.927Z,62.80
2018-01-12T08:35:45.778Z,60.10
2018-01-12T08:38:14.977Z,66.10
2018-01-12T08:40:43.856Z,66.03
2018-01-12T08:43:12.426Z,67.33
2018-01-12T08:45:41.017Z,67.27
2018-01-12T08:48:09.587Z,64.93
2018-01-12T08:50:38.202Z,64.20
2018-01-12T08:53:12.674Z,64.40
2018-01-12T08:55:42.472Z,60.60
2018-01-12T08:58:13.384Z,61.13
2018-01-12T09:00:42.140Z,55.63
2018-01-12T09:03:11.374Z,67.90
2018-01-12T09:05:39.939Z,63.50
2018-01-12T09:08:08.777Z,62.17
2018-01-12T09:10:37.456Z,65.20
2018-01-12T09:13:15.080Z,76.47
2018-01-12T09:15:43.744Z,70.87
2018-01-12T09:18:21.297Z,66.57
2018-01-12T09:20:50.428Z,74.27
2018-01-12T09:23:27.945Z,73.23
2018-01-12T09:25:56.596Z,63.27
2018-01-12T09:28:25.307Z,64.83
2018-01-12T09:30:53.981Z,62.13
2018-01-12T09:33:22.543Z,63.87
2018-01-12T09:35:51.191Z,61.33
2018-01-12T09:38:28.015Z,58.67
2018-01-12T09:40:56.716Z,67.83
2018-01-12T09:43:25.336Z,62.33
2018-01-12T09:45:54.335Z,59.27
2018-01-12T09:48:27.747Z,64.07
2018-01-12T09:50:56.579Z,71.93
2018-01-12T09:53:25.137Z,62.43
2018-01-12T09:55:53.761Z,68.10
2018-01-12T09:58:22.383Z,57.60
2018-01-12T10:00:59.171Z,63.93
2018-01-12T10:03:27.928Z,64.60
2018-01-12T10:05:57.102Z,65.50
2018-01-12T10:08:26.403Z,60.47
2018-01-12T10:10:55.000Z,64.40
2018-01-12T10:13:23.609Z,62.50
2018-01-12T10:15:52.191Z,64.33
2018-01-12T10:18:25.550Z,63.30
2018-01-12T10:20:55.103Z,63.33
2018-01-12T10:23:23.717Z,63.80
2018-01-12T10:25:52.429Z,73.90
2018-01-12T10:28:21.106Z,64.50
2018-01-12T10:30:57.451Z,57.20
2018-01-12T10:33:31.946Z,61.10
2018-01-12T10:36:07.335Z,69.90
2018-01-12T10:38:36.163Z,62.03
2018-01-12T10:41:13.571Z,71.27
2018-01-12T10:43:43.544Z,64.70
2018-01-12T10:46:20.995Z,64.00
2018-01-12T10:48:57.066Z,62.10
2018-01-12T10:51:34.653Z,67.90
2018-01-12T10:54:03.651Z,71.00
2018-01-12T10:56:32.224Z,71.30
2018-01-12T10:59:00.780Z,61.73
2018-01-12T11:01:29.598Z,55.97
2018-01-12T11:03:58.300Z,66.83
2018-01-12T11:06:27.227Z,64.50
2018-01-12T11:08:56.088Z,68.70
2018-01-12T11:11:24.983Z,62.13
2018-01-12T11:13:53.836Z,64.00
2018-01-12T11:16:22.552Z,67.80
2018-01-12T11:18:51.208Z,67.83
2018-01-12T11:21:19.874Z,67.00
2018-01-12T11:23:48.804Z,66.90
2018-01-12T11:26:18.012Z,67.50
2018-01-12T11:28:46.561Z,64.33
2018-01-12T11:31:15.084Z,64.37
2018-01-12T11:33:45.389Z,64.53
2018-01-12T11:36:13.999Z,64.13
2018-01-12T11:38:42.600Z,61.80
2018-01-12T11:41:11.148Z,66.60
2018-01-12T11:43:39.838Z,59.50
2018-01-12T11:46:08.524Z,62.30
2018-01-12T11:48:37.068Z,65.67
2018-01-12T11:51:05.780Z,68.23
2018-01-12T11:53:34.635Z,61.50
2018-01-12T11:56:03.173Z,63.43
2018-01-12T11:58:31.816Z,67.87
2018-01-12T12:01:00.548Z,69.20
2018-01-12T12:03:29.179Z,62.57
2018-01-12T12:05:58.752Z,58.77
2018-01-12T12:08:27.392Z,56.43
2018-01-12T12:10:56.283Z,62.87
2018-01-12T12:13:25.388Z,69.17
2018-01-12T12:15:54.504Z,71.03
2018-01-12T12:18:23.477Z,66.03
2018-01-12T12:20:52.177Z,65.90
2018-01-12T12:23:20.850Z,68.83
2018-01-12T12:25:49.936Z,67.53
2018-01-12T12:28:19.485Z,56.20
2018-01-12T12:30:48.340Z,67.60
2018-01-12T12:33:17.657Z,61.10
2018-01-12T12:35:47.394Z,62.03
2018-01-12T12:38:17.007Z,53.07
2018-01-12T12:40:46.482Z,63.20
2018-01-12T12:43:15.257Z,67.80
2018-01-12T12:45:43.861Z,66.57
2018-01-12T12:48:13.128Z,64.57
2018-01-12T12:50:42.951Z,60.53
2018-01-12T12:53:11.938Z,60.40
2018-01-12T12:55:42.725Z,72.67
2018-01-12T12:58:11.607Z,63.37
2018-01-12T13:00:41.560Z,67.47
2018-01-12T13:03:11.540Z,72.00
2018-01-12T13:05:40.872Z,68.10
2018-01-12T13:08:09.461Z,60.03
2018-01-12T13:10:38.463Z,58.07
2018-01-12T13:13:07.038Z,66.07
2018-01-12T13:15:36.186Z,61.27
2018-01-12T13:18:04.799Z,58.97
2018-01-12T13:20:33.538Z,62.47
2018-01-12T13:23:02.428Z,70.67
2018-01-12T13:25:31.133Z,59.17
2018-01-12T13:28:00.199Z,64.60
2018-01-12T13:30:29.134Z,68.60
2018-01-12T13:32:57.742Z,68.10
2018-01-12T13:35:26.676Z,68.10
2018-01-12T13:37:55.538Z,64.23
2018-01-12T13:40:24.449Z,69.60
2018-01-12T13:42:53.308Z,70.97
2018-01-12T13:45:21.892Z,73.30
2018-01-12T13:47:50.455Z,58.33
2018-01-12T13:50:19.343Z,63.60
2018-01-12T13:52:48.243Z,77.33
2018-01-12T13:55:16.979Z,65.13
2018-01-12T13:57:45.814Z,72.97
2018-01-12T14:00:14.573Z,65.90
2018-01-12T14:02:43.192Z,66.10
2018-01-12T14:05:12.934Z,64.10
2018-01-12T14:07:41.459Z,65.73
2018-01-12T14:10:10.522Z,70.87
2018-01-12T14:12:39.239Z,69.53
2018-01-12T14:15:09.806Z,72.40
2018-01-12T14:17:38.643Z,67.90
2018-01-12T14:20:07.524Z,74.90
2018-01-12T14:22:36.103Z,68.53
2018-01-12T14:25:04.898Z,69.10
2018-01-12T14:27:33.938Z,75.17
2018-01-12T14:30:03.928Z,65.03
2018-01-12T14:32:32.822Z,69.60
2018-01-12T14:35:01.487Z,75.00
2018-01-12T14:37:30.166Z,73.43
2018-01-12T14:39:58.882Z,68.90
2018-01-12T14:42:28.281Z,73.53
2018-01-12T14:44:56.808Z,78.17
2018-01-12T14:47:25.602Z,75.97
2018-01-12T14:49:54.253Z,74.50
2018-01-12T14:52:23.208Z,68.37
2018-01-12T14:54:53.063Z,70.20
2018-01-12T14:57:22.201Z,85.00
2018-01-12T14:59:51.081Z,69.30
2018-01-12T15:02:20.005Z,77.33
2018-01-12T15:04:48.860Z,78.10
2018-01-12T15:07:18.797Z,79.13
2018-01-12T15:09:47.647Z,83.20
2018-01-12T15:12:16.269Z,81.90
2018-01-12T15:14:45.264Z,72.80
2018-01-12T15:17:14.665Z,81.43
2018-01-12T15:19:44.257Z,77.60
2018-01-12T15:22:13.349Z,73.10
2018-01-12T15:24:42.259Z,81.13
2018-01-12T15:27:12.150Z,70.97
2018-01-12T15:29:41.268Z,86.23
2018-01-12T15:32:10.172Z,85.00
2018-01-12T15:34:39.222Z,78.03
2018-01-12T15:37:08.140Z,87.27
2018-01-12T15:39:37.710Z,80.67
2018-01-12T15:42:06.518Z,83.47
2018-01-12T15:44:36.108Z,99.97
2018-01-12T15:47:05.397Z,96.10
2018-01-12T15:49:34.752Z,98.70
2018-01-12T15:52:03.951Z,97.87
2018-01-12T15:54:32.944Z,93.87
2018-01-12T15:57:02.217Z,88.50
2018-01-12T15:59:30.774Z,95.57
2018-01-12T16:01:59.491Z,90.33
2018-01-12T16:04:28.741Z,89.43
2018-01-12T16:06:57.621Z,99.20
2018-01-12T16:09:27.790Z,99.23
2018-01-12T16:11:57.117Z,106.33
2018-01-12T16:14:25.994Z,104.03
2018-01-12T16:16:55.197Z,96.87
2018-01-12T16:19:24.204Z,121.63
2018-01-12T16:21:53.806Z,111.90
2018-01-12T16:24:23.698Z,101.47
2018-01-12T16:26:52.814Z,103.33
2018-01-12T16:29:21.688Z,105.07
2018-01-12T16:31:50.801Z,111.83
2018-01-12T16:34:19.433Z,114.30
2018-01-12T16:37:51.664Z,97.30
2018-01-12T16:40:20.551Z,108.57
2018-01-12T16:42:49.407Z,107.60
2018-01-12T16:45:18.254Z,106.67
2018-01-12T16:47:47.395Z,107.27
2018-01-12T16:50:17.524Z,96.73
2018-01-12T16:52:46.304Z,104.77
2018-01-12T16:55:15.213Z,99.27
2018-01-12T16:57:44.086Z,97.40
2018-01-12T17:00:12.903Z,104.73
2018-01-12T17:02:41.518Z,98.07
2018-01-12T17:05:10.757Z,94.27
2018-01-12T17:07:39.411Z,98.73
2018-01-12T17:10:08.335Z,106.73
2018-01-12T17:12:37.669Z,106.97
2018-01-12T17:15:07.989Z,106.47
2018-01-12T17:17:36.649Z,101.93
2018-01-12T17:20:05.765Z,111.00
2018-01-12T17:22:35.247Z,110.17
2018-01-12T17:25:03.960Z,110.57
2018-01-12T17:27:32.605Z,109.20
2018-01-12T17:30:01.481Z,114.97
2018-01-12T17:32:30.404Z,115.57
2018-01-12T17:34:58.848Z,111.27
2018-01-12T17:37:27.593Z,105.73
2018-01-12T17:39:56.216Z,102.07
2018-01-12T17:42:24.973Z,114.63
2018-01-12T17:44:53.620Z,95.63
2018-01-12T17:47:22.271Z,98.70
2018-01-12T17:49:50.841Z,90.77
2018-01-12T17:52:19.499Z,95.43
2018-01-12T17:54:48.440Z,96.53
2018-01-12T17:57:17.265Z,93.77
2018-01-12T17:59:46.557Z,97.97
2018-01-12T18:02:15.560Z,92.00
2018-01-12T18:04:44.295Z,88.30
2018-01-12T18:07:13.195Z,83.40
2018-01-12T18:09:42.258Z,76.90
2018-01-12T18:12:11.928Z,83.93
2018-01-12T18:14:40.475Z,78.77
2018-01-12T18:17:09.115Z,81.03
2018-01-12T18:19:37.669Z,79.93
2018-01-12T18:22:06.662Z,80.07
2018-01-12T18:24:35.673Z,73.57
2018-01-12T18:27:04.208Z,73.00
2018-01-12T18:29:33.000Z,72.70
2018-01-12T18:32:01.627Z,66.13
2018-01-12T18:34:30.187Z,74.13
2018-01-12T18:36:58.916Z,75.93
2018-01-12T18:39:27.549Z,73.37
2018-01-12T18:41:56.123Z,83.60
2018-01-12T18:44:24.756Z,77.73
2018-01-12T18:46:53.390Z,75.17
2018-01-12T18:49:22.204Z,71.50
2018-01-12T18:51:50.901Z,74.50
2018-01-12T18:54:19.754Z,71.10
2018-01-12T18:56:48.297Z,63.73
2018-01-12T18:59:17.110Z,63.93
2018-01-12T19:01:46.389Z,61.80
2018-01-12T19:04:15.150Z,70.87
2018-01-12T19:06:43.760Z,67.67
2018-01-12T19:09:12.961Z,75.47
2018-01-12T19:11:41.625Z,70.80
2018-01-12T19:14:10.144Z,67.90
2018-01-12T19:16:39.217Z,65.17
2018-01-12T19:19:07.981Z,67.50
2018-01-12T19:21:36.705Z,76.67
2018-01-12T19:24:06.089Z,81.40
2018-01-12T19:26:36.068Z,74.00
2018-01-12T19:29:04.793Z,72.03
2018-01-12T19:31:33.479Z,86.27
2018-01-12T19:34:03.607Z,72.83
2018-01-12T19:36:32.893Z,84.83
2018-01-12T19:39:02.394Z,84.10
2018-01-12T19:41:31.186Z,80.73
2018-01-12T19:43:59.776Z,86.80
2018-01-12T19:46:28.530Z,89.43
2018-01-12T19:48:57.187Z,88.87
2018-01-12T19:51:26.138Z,96.87
2018-01-12T19:53:55.032Z,101.80
2018-01-12T19:56:23.623Z,89.33
2018-01-12T19:58:53.284Z,94.93
2018-01-12T20:01:22.152Z,95.70
2018-01-12T20:03:50.954Z,95.23
2018-01-12T20:06:19.973Z,91.03
2018-01-12T20:08:48.680Z,99.97
2018-01-12T20:11:18.063Z,96.23
2018-01-12T20:13:47.885Z,84.07
2018-01-12T20:16:17.312Z,94.03
2018-01-12T20:18:46.725Z,99.10
2018-01-12T20:21:17.024Z,95.20
2018-01-12T20:23:47.074Z,98.87
2018-01-12T20:26:17.044Z,94.57
2018-01-12T20:28:45.977Z,93.10
2018-01-12T20:31:14.868Z,100.83
2018-01-12T20:33:43.345Z,111.77
2018-01-12T20:36:13.342Z,87.90
2018-01-12T20:38:42.167Z,104.37
2018-01-12T20:41:12.096Z,98.97
2018-01-12T20:43:41.562Z,95.43
2018-01-12T20:46:12.813Z,88.10
2018-01-12T20:48:42.643Z,97.77
2018-01-12T20:51:13.738Z,106.70
2018-01-12T20:53:44.436Z,96.97
2018-01-12T20:56:17.761Z,106.30
2018-01-12T20:58:46.433Z,105.33
2018-01-12T21:01:15.041Z,95.57
2018-01-12T21:03:44.860Z,96.63
2018-01-12T21:06:14.549Z,104.17
2018-01-12T21:08:43.207Z,100.87
2018-01-12T21:11:12.507Z,118.07
2018-01-12T21:13:41.478Z,105.90
2018-01-12T21:16:10.434Z,117.00
2018-01-12T21:18:39.120Z,123.43
2018-01-12T21:21:08.160Z,121.70
2018-01-12T21:23:36.946Z,103.87
2018-01-12T21:26:05.672Z,112.13
2018-01-12T21:28:34.223Z,117.93
2018-01-12T21:31:03.233Z,110.90
2018-01-12T21:33:31.947Z,106.07
2018-01-12T21:36:01.775Z,123.83
2018-01-12T21:38:31.152Z,115.27
2018-01-12T21:40:59.707Z,126.20
2018-01-12T21:43:29.131Z,133.63
2018-01-12T21:45:58.150Z,140.23
2018-01-12T21:48:26.852Z,128.93
2018-01-12T21:50:55.601Z,124.90
2018-01-12T21:53:25.510Z,121.57
2018-01-12T21:55:54.208Z,124.87
2018-01-12T21:58:23.534Z,121.13
2018-01-12T22:00:52.996Z,135.93
2018-01-12T22:03:22.564Z,125.23
2018-01-12T22:05:51.620Z,123.23
2018-01-12T22:08:20.307Z,132.33
2018-01-12T22:10:48.909Z,122.47
2018-01-12T22:13:18.517Z,136.33
2018-01-12T22:15:47.850Z,125.40
2018-01-12T22:18:17.061Z,121.80
2018-01-12T22:20:45.666Z,125.57
2018-01-12T22:23:14.265Z,131.80
2018-01-12T22:25:43.162Z,123.47
2018-01-12T22:28:11.882Z,134.30
2018-01-12T22:30:40.529Z,129.57
2018-01-12T22:33:10.016Z,125.50
2018-01-12T22:35:38.648Z,132.20
2018-01-12T22:38:07.266Z,121.37
2018-01-12T22:40:36.202Z,120.33
2018-01-12T22:43:04.892Z,118.80
2018-01-12T22:45:33.436Z,117.53
2018-01-12T22:48:03.604Z,111.30
2018-01-12T22:50:32.672Z,106.03
2018-01-12T22:53:01.563Z,111.43
2018-01-12T22:55:30.247Z,116.23
2018-01-12T22:57:58.808Z,113.90
2018-01-12T23:00:27.386Z,111.67
2018-01-12T23:02:56.505Z,106.30
2018-01-12T23:05:25.200Z,108.20
2018-01-12T23:07:53.922Z,103.60
2018-01-12T23:10:24.363Z,123.17
2018-01-12T23:12:54.307Z,109.67
2018-01-12T23:15:24.277Z,107.23
2018-01-12T23:17:53.492Z,100.70
2018-01-12T23:20:23.033Z,109.37
2018-01-12T23:22:51.781Z,114.80
2018-01-12T23:25:20.391Z,117.47
2018-01-12T23:27:48.966Z,118.27
2018-01-12T23:30:18.168Z,110.43
2018-01-12T23:32:46.708Z,113.90
2018-01-12T23:35:15.437Z,116.00
2018-01-12T23:37:44.557Z,114.77
2018-01-12T23:40:13.111Z,116.53
2018-01-12T23:42:41.909Z,122.60
2018-01-12T23:45:10.682Z,106.37
2018-01-12T23:47:39.283Z,112.83
2018-01-12T23:50:07.947Z,105.63
2018-01-12T23:52:36.501Z,109.43
2018-01-12T23:55:04.928Z,97.63
2018-01-12T23:57:33.555Z,114.23
